Share

Lebanon, MO

NonFedAWOS LEBANON MO US MODOT (MKLBO) Elev 1320 ft | 37.65 °N, 92.65 °W | Change Station

Current weather conditions updated 45 minutes ago

Clear
Clear
59 °F
Feels Like 59 °F
N
5
Wind Variable Wind from ENE
Gusts 0.0 mph
Sunrise 6:31 AM
Sunset 7:49 PM
Moon Waning Gibbous

Tomorrow is forecast to be nearly the same temperature as today.

Pressure 30.18 in
Visibility 10.0 miles
Clouds Clear
Dew Point 37 °F
Humidity 44%
Rainfall -999.00 in
Snow Depth Not available.
UV 0 out of 16
Pollen 10.00 out of 12
Air Quality Not available.
Flu Activity Sporadic
METAR KSGF 190252Z 11005KT 10SM CLR 14/05 A3018

More Conditions Fewer Conditions

Pressure 30.18 in
Visibility 10.0 miles
Clouds Clear
Dew Point 37 °F
Humidity 44%
Rainfall -999.00 in
Snow Depth Not available.
UV 0 out of 16
Pollen 10.00 out of 12
Air Quality Not available.
Flu Activity Sporadic
METAR KSGF 190252Z 11005KT 10SM CLR 14/05 A3018

More Conditions Fewer Conditions

10-Day Weather Forecast

Almanac

Astronomy

Apr. 18, 2014 Rise Set
Actual Time 6:31 AM CDT 7:49 PM CDT
Civil Twilight 6:04 AM CDT 8:16 PM CDT
Nautical Twilight 5:31 AM CDT 8:49 PM CDT
Astronomical Twilight 4:57 AM CDT 9:23 PM CDT
Moon 11:32 PM CDT (4/18) 8:56 AM CDT (4/18)
Length of Visible Light 14h 12m
Length of Day
13h 17m
Tomorrow will be 2m 16s longer.
Waning Gibbous, 83% of the Moon is Illuminated
Today
Waning Gibbous
Apr 22
Last Quarter
Apr 29
New
May 6
First Quarter
May 14
Full

Today's Extremes

State Highs State Lows

Community

  • Sunset Silhouettes
    Sunset Silhouettes
  • FL sunset Perico Isle
    FL sunset Perico Isle
  • Cloudy spring view
    Cloudy spring view
  • Old barn
    Old barn
  • What's for Lunch?
    What's for Lunch?

WunderPhotos

Upload Photos

1,702,630 photos uploaded!

WunderBlogs® & News

Nearby

Snow Depth

Station Depth Elevation
No new snow has been reported.

Coastal Water Temperatures

Place Temperature
No Stations Reporting

Earthquake Activity

City Distance Mag. Time & Date
No recent earthquake activity has been reported nearby.
Minimum magnitude displayed is 2.5.

Nearby Weather Stations

Station Location Temp. Windchill Dew Point Humidity Wind Precip. Elev Updated Type
NonFedAWOS LEBANON , Lebanon, MO 59 °F - 37 °F 44% ENE  at  5 mph 0.00 in / hr 1320 ft 10:05 PM CDT MADIS
Rural Lebanon, Lebanon, MO 48.6 °F 49 °F 40 °F 73% WNW  at  0.0 mph 0.00 in / hr 1160 ft 10:50 PM CDT Rapid Fire
S. Newport, Conway, Conway, MO 58.1 °F - 42 °F 55% East  at  2.2 mph 0.00 in / hr 1394 ft 10:49 PM CDT Normal
CAMDENTON, MO 60.3 °F - 40 °F 47% NW  at  0.0 mph 0.00 in / hr 961 ft 10:49 PM CDT Normal
RAWS MACKS CR MO, Macks Creek, MO 61 °F - 38 °F 43% East  at  4 mph 0.00 in / hr 1062 ft 10:13 PM CDT MADIS
Bridal Cave, Camdenton, MO 57.2 °F - 39 °F 52% NNE  at  0.0 mph 0.00 in / hr 719 ft 10:50 PM CDT Rapid Fire

Show More Stations Show Fewer Stations

What do you think?

We're not finished. Please let us know what you like, what you don't like, and what you are still missing.